Time;durP1;ratioP1;P1;durP2;ratioP2;P2;SDS_P1;SDS_P2;PMS_P1;PMS_P2;Temp;Humidity;BMP_temperature;BMP_pressure;BME280_temperature;BME280_humidity;BME280_pressure;Samples;Min_cycle;Max_cycle;Signal;HPM_P1;HPM_P2
2023/07/27 00:00:27;;;;;;;1.02;0.90;;;;;;;26.27;34.30;99380.00;4501073;31;34826;-67
2023/07/27 00:02:55;;;;;;;1.77;0.90;;;;;;;26.24;34.04;99378.59;4501018;31;34434;-67
2023/07/27 00:05:22;;;;;;;1.70;0.98;;;;;;;26.20;34.07;99381.00;4500810;31;33469;-67
2023/07/27 00:07:50;;;;;;;1.73;1.10;;;;;;;26.20;34.34;99385.66;4500894;31;33924;-65
2023/07/27 00:10:20;;;;;;;1.30;1.00;;;;;;;26.18;34.17;99388.66;4500904;31;34685;-66
2023/07/27 00:12:47;;;;;;;1.42;0.90;;;;;;;26.18;34.54;99388.66;4499601;31;34385;-65
2023/07/27 00:15:15;;;;;;;1.48;1.00;;;;;;;26.19;34.40;99387.56;4500929;31;34006;-66
2023/07/27 00:17:42;;;;;;;0.93;0.82;;;;;;;26.19;34.08;99389.47;4500901;31;33947;-64
2023/07/27 00:20:10;;;;;;;1.73;0.73;;;;;;;26.17;34.25;99395.19;4500972;31;34209;-65
2023/07/27 00:22:38;;;;;;;1.98;0.80;;;;;;;26.15;33.93;99396.53;4500864;31;32762;-64
2023/07/27 00:25:06;;;;;;;1.92;0.98;;;;;;;26.13;34.07;99393.22;4500880;31;34056;-66
2023/07/27 00:27:33;;;;;;;2.22;0.90;;;;;;;26.10;34.12;99393.72;4500668;31;34590;-66
2023/07/27 00:30:01;;;;;;;1.37;0.90;;;;;;;26.06;34.14;99400.78;4500841;31;34261;-64
2023/07/27 00:32:29;;;;;;;2.55;1.00;;;;;;;26.02;34.03;99394.16;4500719;31;33799;-66
2023/07/27 00:34:56;;;;;;;2.25;0.90;;;;;;;25.99;34.32;99400.16;4499252;31;33435;-67
2023/07/27 00:37:25;;;;;;;2.12;1.20;;;;;;;25.95;34.48;99397.91;4500970;31;34010;-65
2023/07/27 00:39:52;;;;;;;2.15;1.33;;;;;;;25.93;34.57;99391.87;4499831;31;34334;-64
2023/07/27 00:42:20;;;;;;;2.17;1.15;;;;;;;25.93;34.56;99388.34;4500564;31;34289;-66
2023/07/27 00:44:47;;;;;;;2.33;1.20;;;;;;;25.89;34.74;99395.38;4500709;31;34759;-65
2023/07/27 00:47:15;;;;;;;3.62;1.20;;;;;;;25.86;34.68;99393.16;4500628;31;33876;-65
2023/07/27 00:49:43;;;;;;;2.03;1.17;;;;;;;25.84;34.72;99393.41;4499416;31;34897;-66
2023/07/27 00:52:11;;;;;;;1.45;1.20;;;;;;;25.81;34.69;99399.37;4499440;31;34818;-66
2023/07/27 00:54:39;;;;;;;3.12;1.30;;;;;;;25.78;34.67;99401.78;4499419;31;34056;-66
2023/07/27 00:57:07;;;;;;;2.45;1.35;;;;;;;25.77;34.72;99411.88;4500479;31;34695;-66
2023/07/27 00:59:34;;;;;;;1.48;1.00;;;;;;;25.76;34.92;99404.75;4500539;31;34220;-67
2023/07/27 01:02:02;;;;;;;2.92;1.60;;;;;;;25.77;34.88;99402.84;4486306;31;33528;-66
2023/07/27 01:04:30;;;;;;;2.90;1.20;;;;;;;25.74;34.85;99395.12;4500404;31;34642;-65
2023/07/27 01:06:57;;;;;;;1.75;1.17;;;;;;;25.73;34.89;99398.94;4490699;31;34815;-65
2023/07/27 01:09:25;;;;;;;1.85;1.20;;;;;;;25.74;34.94;99397.84;4485041;32;34296;-65
2023/07/27 01:12:08;;;;;;;2.53;1.00;;;;;;;25.72;34.96;99400.03;4484570;32;33474;-66
2023/07/27 01:15:06;;;;;;;2.20;1.05;;;;;;;25.70;34.96;99392.91;4483496;32;33710;-66
2023/07/27 01:17:43;;;;;;;2.17;1.20;;;;;;;25.70;34.99;99389.34;4484664;32;33886;-66
2023/07/27 01:20:33;;;;;;;2.53;1.10;;;;;;;25.64;34.82;99402.09;4483250;32;33903;-66
2023/07/27 01:23:43;;;;;;;2.90;1.23;;;;;;;25.64;35.01;99398.53;4484896;32;34428;-66
2023/07/27 01:26:24;;;;;;;4.53;1.20;;;;;;;25.63;34.76;99400.44;4476634;32;33492;-67
2023/07/27 01:29:29;;;;;;;2.45;1.08;;;;;;;25.62;34.94;99406.16;4484613;32;33995;-66
2023/07/27 01:31:57;;;;;;;2.53;1.10;;;;;;;25.58;34.84;99405.81;4484539;32;34978;-64
2023/07/27 01:34:32;;;;;;;1.45;1.02;;;;;;;25.56;34.92;99412.63;4470378;32;33545;-66
2023/07/27 01:37:02;;;;;;;2.20;1.25;;;;;;;25.56;34.97;99404.44;4470800;32;33532;-65
2023/07/27 01:39:34;;;;;;;1.05;0.82;;;;;;;25.53;34.94;99405.75;4483204;32;33933;-66
2023/07/27 01:42:02;;;;;;;2.37;0.98;;;;;;;25.56;34.93;99410.72;4470458;32;34842;-66
2023/07/27 01:44:31;;;;;;;1.52;1.08;;;;;;;25.54;34.71;99403.84;4483139;32;33505;-64
2023/07/27 01:46:58;;;;;;;2.60;1.20;;;;;;;25.52;34.76;99404.09;4470348;32;34794;-65
2023/07/27 01:49:26;;;;;;;3.45;1.20;;;;;;;25.51;34.76;99401.59;4470338;32;33661;-66
2023/07/27 01:51:54;;;;;;;1.92;1.25;;;;;;;25.50;34.76;99397.22;4470004;32;35213;-65
2023/07/27 01:54:21;;;;;;;1.60;1.10;;;;;;;25.49;34.76;99388.22;4483495;32;33717;-66
2023/07/27 01:56:49;;;;;;;2.40;1.25;;;;;;;25.49;34.80;99401.88;4484391;32;33976;-66
2023/07/27 01:59:17;;;;;;;2.33;1.20;;;;;;;25.48;34.69;99400.22;4484405;32;33575;-67
2023/07/27 02:01:44;;;;;;;1.52;1.10;;;;;;;25.49;34.76;99396.41;4483466;32;33603;-66
2023/07/27 02:04:13;;;;;;;1.58;1.17;;;;;;;25.48;34.63;99394.75;4470216;32;33525;-66
2023/07/27 02:06:41;;;;;;;2.65;0.93;;;;;;;25.49;34.66;99393.66;4491240;31;34232;-65
2023/07/27 02:09:08;;;;;;;2.30;1.30;;;;;;;25.50;34.62;99392.59;4500116;31;34159;-66
2023/07/27 02:11:36;;;;;;;1.23;1.00;;;;;;;25.51;34.76;99393.41;4499830;31;34056;-67
2023/07/27 02:14:18;;;;;;;1.70;1.10;;;;;;;25.52;34.76;99389.63;4485870;31;34103;-65
2023/07/27 02:17:07;;;;;;;2.25;1.10;;;;;;;25.53;34.74;99391.28;4498738;31;34812;-66
2023/07/27 02:19:36;;;;;;;2.37;1.42;;;;;;;25.55;34.97;99389.94;4498683;31;33953;-65
2023/07/27 02:22:03;;;;;;;1.77;1.10;;;;;;;25.55;34.84;99391.84;4485808;31;33857;-64
2023/07/27 02:24:31;;;;;;;1.87;1.02;;;;;;;25.55;34.71;99389.09;4485912;31;34575;-66
2023/07/27 02:26:59;;;;;;;2.08;1.30;;;;;;;25.55;34.62;99395.38;4486057;31;33891;-66
2023/07/27 02:29:28;;;;;;;2.12;1.10;;;;;;;25.54;34.46;99398.37;4499838;31;33996;-65
2023/07/27 02:31:55;;;;;;;1.37;1.10;;;;;;;25.51;34.58;99393.41;4499880;31;34706;-66
2023/07/27 02:34:23;;;;;;;2.95;1.33;;;;;;;25.49;34.65;99393.66;4499872;31;33520;-66
2023/07/27 02:36:50;;;;;;;2.25;1.08;;;;;;;25.49;34.53;99395.56;4499950;31;34795;-65
2023/07/27 02:39:18;;;;;;;3.10;1.40;;;;;;;25.47;34.58;99401.31;4499794;31;33868;-65
2023/07/27 02:41:46;;;;;;;1.90;1.23;;;;;;;25.45;34.49;99400.72;4499642;31;34811;-66
2023/07/27 02:44:14;;;;;;;1.48;1.10;;;;;;;25.42;34.28;99396.59;4499833;31;33566;-66
2023/07/27 02:46:41;;;;;;;2.53;1.30;;;;;;;25.39;34.23;99404.44;4498569;31;33920;-66
2023/07/27 02:49:10;;;;;;;2.33;1.20;;;;;;;25.38;34.28;99409.09;4499733;31;34054;-66
2023/07/27 02:51:38;;;;;;;3.12;1.20;;;;;;;25.34;34.21;99416.13;4499792;31;34036;-66
2023/07/27 02:54:06;;;;;;;1.98;1.20;;;;;;;25.33;34.25;99414.47;4498714;31;34319;-66
2023/07/27 02:56:34;;;;;;;1.42;1.05;;;;;;;25.33;34.39;99417.19;4499585;31;33846;-66
2023/07/27 02:59:02;;;;;;;2.17;1.10;;;;;;;25.34;34.53;99423.47;4499671;31;33995;-67
2023/07/27 03:01:30;;;;;;;6.07;1.25;;;;;;;25.33;34.39;99430.03;4500073;31;34842;-66
2023/07/27 03:03:58;;;;;;;2.10;1.05;;;;;;;25.33;34.43;99419.09;4504650;31;32792;-66
2023/07/27 03:06:27;;;;;;;1.08;0.85;;;;;;;25.33;34.45;99422.66;4504778;31;34115;-65
2023/07/27 03:08:55;;;;;;;1.60;1.20;;;;;;;25.31;34.38;99430.25;4504647;31;33912;-66
2023/07/27 03:11:23;;;;;;;1.12;1.00;;;;;;;25.31;34.31;99434.88;4504576;31;34348;-67
2023/07/27 03:13:51;;;;;;;1.58;1.00;;;;;;;25.29;34.39;99435.16;4504509;31;33541;-66
2023/07/27 03:16:18;;;;;;;5.00;1.30;;;;;;;25.29;34.38;99437.06;4503365;31;33926;-67
2023/07/27 03:18:47;;;;;;;2.37;1.15;;;;;;;25.28;34.34;99433.50;4504549;31;34801;-66
2023/07/27 03:21:15;;;;;;;2.20;1.17;;;;;;;25.29;34.28;99431.59;4504250;31;34279;-65
2023/07/27 03:23:50;;;;;;;3.85;1.40;;;;;;;25.29;34.40;99439.78;4504477;31;33564;-66
2023/07/27 03:26:17;;;;;;;2.03;1.27;;;;;;;25.27;34.36;99445.47;4500494;31;33464;-66
2023/07/27 03:28:45;;;;;;;2.20;1.25;;;;;;;25.29;34.40;99443.34;4488669;32;33777;-65
2023/07/27 03:31:20;;;;;;;1.05;0.95;;;;;;;25.27;34.50;99450.94;4488469;32;35056;-65
2023/07/27 03:33:48;;;;;;;2.70;1.20;;;;;;;25.26;34.38;99456.66;4487045;32;33483;-67
2023/07/27 03:36:16;;;;;;;1.40;1.00;;;;;;;25.26;34.38;99462.13;4488530;32;34238;-65
2023/07/27 03:38:44;;;;;;;3.53;1.10;;;;;;;25.25;34.39;99460.47;4488413;32;33749;-66
2023/07/27 03:41:12;;;;;;;2.08;1.30;;;;;;;25.24;34.41;99462.38;4474020;32;34836;-67
2023/07/27 03:43:39;;;;;;;1.67;1.00;;;;;;;25.24;34.36;99458.81;4474539;32;32731;-66
2023/07/27 03:46:07;;;;;;;2.08;1.12;;;;;;;25.24;34.44;99458.81;4488616;32;33782;-64
2023/07/27 03:48:35;;;;;;;3.67;1.35;;;;;;;25.21;34.38;99456.56;4486911;32;33695;-66
2023/07/27 03:51:03;;;;;;;2.05;1.30;;;;;;;25.22;34.23;99459.03;4488169;32;34839;-66
2023/07/27 03:53:31;;;;;;;1.75;1.20;;;;;;;25.20;34.24;99466.66;4487058;32;34299;-66
2023/07/27 03:56:01;;;;;;;3.72;1.48;;;;;;;25.18;34.30;99472.38;4486678;32;34625;-63
2023/07/27 03:58:29;;;;;;;3.15;1.30;;;;;;;25.15;34.32;99482.97;4488429;32;34667;-65
2023/07/27 04:00:57;;;;;;;2.05;1.10;;;;;;;25.13;34.46;99477.75;4488077;32;33889;-66
2023/07/27 04:03:24;;;;;;;1.62;1.20;;;;;;;25.13;34.29;99477.75;4488202;32;33685;-66
2023/07/27 04:05:53;;;;;;;3.20;1.30;;;;;;;25.12;34.31;99492.44;4490805;31;34673;-66
2023/07/27 04:08:21;;;;;;;1.83;1.10;;;;;;;25.10;34.41;99489.16;4503793;31;33974;-66
2023/07/27 04:10:49;;;;;;;2.37;1.27;;;;;;;25.10;34.46;99488.31;4503779;31;33856;-66
2023/07/27 04:13:16;;;;;;;2.10;1.12;;;;;;;25.10;34.56;99502.81;4502905;31;34442;-66
2023/07/27 04:15:44;;;;;;;1.85;1.00;;;;;;;25.10;34.50;99502.81;4500901;31;34751;-64
2023/07/27 04:18:12;;;;;;;2.50;1.15;;;;;;;25.10;34.54;99502.81;4500827;31;33868;-62
2023/07/27 04:20:39;;;;;;;1.90;1.17;;;;;;;25.10;34.51;99502.81;4500867;31;33950;-62
2023/07/27 04:23:07;;;;;;;2.67;1.30;;;;;;;25.10;34.53;99501.97;4501152;31;33341;-62
2023/07/27 04:25:35;;;;;;;2.58;1.37;;;;;;;25.12;34.54;99494.34;4500884;31;33697;-63
2023/07/27 04:28:02;;;;;;;2.92;1.20;;;;;;;25.14;34.71;99493.06;4500826;31;33548;-66
2023/07/27 04:30:30;;;;;;;1.77;1.20;;;;;;;25.15;34.58;99494.72;4500533;31;34712;-62
2023/07/27 04:32:58;;;;;;;2.70;1.20;;;;;;;25.15;34.59;99491.97;4500712;31;34485;-62
2023/07/27 04:35:25;;;;;;;1.90;1.30;;;;;;;25.16;34.57;99501.81;4500817;31;34664;-62
2023/07/27 04:37:53;;;;;;;3.00;1.40;;;;;;;25.17;34.52;99497.19;4500753;31;34438;-62
2023/07/27 04:40:21;;;;;;;2.80;1.55;;;;;;;25.16;34.63;99504.53;4500675;31;34109;-62
2023/07/27 04:42:48;;;;;;;2.45;1.25;;;;;;;25.15;34.59;99497.44;4500791;31;34357;-62
2023/07/27 04:45:16;;;;;;;2.62;1.30;;;;;;;25.15;34.85;99502.91;4500655;31;34746;-61
2023/07/27 04:47:45;;;;;;;1.83;1.30;;;;;;;25.16;34.75;99506.44;4500712;31;34447;-63
2023/07/27 04:50:12;;;;;;;1.85;1.00;;;;;;;25.18;34.87;99504.28;4500648;31;34896;-63
2023/07/27 04:52:40;;;;;;;2.03;0.98;;;;;;;25.17;34.90;99508.94;4500491;31;34164;-64
2023/07/27 04:55:08;;;;;;;1.10;0.88;;;;;;;25.22;34.93;99507.38;4500729;31;34095;-64
2023/07/27 04:57:35;;;;;;;1.55;1.20;;;;;;;25.21;35.10;99508.44;4500641;31;34069;-62
2023/07/27 05:00:03;;;;;;;2.92;1.58;;;;;;;25.24;35.29;99521.63;4500583;31;34404;-63
2023/07/27 05:02:31;;;;;;;3.28;1.30;;;;;;;25.27;35.19;99523.84;4500567;31;33550;-61
2023/07/27 05:04:58;;;;;;;1.83;1.10;;;;;;;25.28;35.24;99525.53;4500490;31;34634;-62
2023/07/27 05:07:26;;;;;;;2.72;1.42;;;;;;;25.30;35.25;99523.34;4500412;31;33924;-61
2023/07/27 05:09:54;;;;;;;3.33;1.23;;;;;;;25.29;35.06;99530.72;4500502;31;34822;-65
2023/07/27 05:12:21;;;;;;;2.45;1.40;;;;;;;25.29;35.19;99533.47;4500338;31;33528;-64
2023/07/27 05:14:49;;;;;;;2.35;1.20;;;;;;;25.31;35.27;99534.03;4499161;31;33532;-62
2023/07/27 05:17:17;;;;;;;3.72;1.12;;;;;;;25.32;35.28;99543.91;4500723;31;34186;-63
2023/07/27 05:19:44;;;;;;;2.25;1.00;;;;;;;25.33;35.23;99550.19;4500471;31;34193;-63
2023/07/27 05:22:12;;;;;;;2.35;1.30;;;;;;;25.33;35.37;99556.47;4500252;31;33277;-61
2023/07/27 05:24:39;;;;;;;1.98;1.20;;;;;;;25.35;35.29;99548.03;4500006;31;33801;-63
2023/07/27 05:27:07;;;;;;;3.72;1.17;;;;;;;25.35;35.25;99546.13;4500438;31;33721;-65
2023/07/27 05:29:35;;;;;;;3.45;1.40;;;;;;;25.34;35.25;99558.13;4500222;31;34834;-62
2023/07/27 05:32:03;;;;;;;2.10;1.10;;;;;;;25.35;35.34;99554.31;4500662;31;33502;-64
2023/07/27 05:34:34;;;;;;;4.45;1.40;;;;;;;25.34;35.26;99558.13;4500580;31;33605;-62
2023/07/27 05:37:02;;;;;;;4.32;1.67;;;;;;;25.33;35.33;99566.56;4500224;31;34140;-64
2023/07/27 05:39:30;;;;;;;3.05;1.00;;;;;;;25.32;35.35;99565.75;4497723;31;34676;-65
2023/07/27 05:41:57;;;;;;;1.67;1.10;;;;;;;25.35;35.48;99575.34;4486569;31;33580;-64
2023/07/27 05:44:25;;;;;;;2.67;1.10;;;;;;;25.35;35.41;99575.34;4484669;32;34750;-66
2023/07/27 05:46:54;;;;;;;3.95;1.20;;;;;;;25.36;35.43;99577.81;4484608;32;34942;-64
2023/07/27 05:49:22;;;;;;;1.98;1.35;;;;;;;25.36;35.46;99574.25;4484498;32;34803;-65
2023/07/27 05:51:49;;;;;;;2.67;1.30;;;;;;;25.38;35.51;99572.13;4484295;32;33646;-62
2023/07/27 05:54:17;;;;;;;3.15;1.25;;;;;;;25.40;35.42;99578.16;4484404;32;34544;-65
2023/07/27 05:56:45;;;;;;;2.87;1.20;;;;;;;25.37;35.50;99579.50;4484479;32;34746;-61
2023/07/27 05:59:12;;;;;;;4.22;1.40;;;;;;;25.38;35.58;99583.88;4484238;32;34122;-63
2023/07/27 06:01:40;;;;;;;4.93;1.50;;;;;;;25.40;35.60;99580.91;4486329;31;34541;-62
2023/07/27 06:04:08;;;;;;;4.15;1.37;;;;;;;25.40;35.61;99584.44;4492638;31;33948;-66
2023/07/27 06:06:36;;;;;;;3.60;1.30;;;;;;;25.37;35.60;99573.22;4493459;31;34976;-63
2023/07/27 06:09:04;;;;;;;5.65;1.30;;;;;;;25.38;35.61;99577.59;4484230;31;33786;-63
2023/07/27 06:11:32;;;;;;;2.05;1.17;;;;;;;25.39;35.77;99573.78;4499204;31;33810;-65
2023/07/27 06:14:01;;;;;;;3.05;1.48;;;;;;;25.41;35.78;99585.28;4500161;31;34374;-64
2023/07/27 06:16:30;;;;;;;2.55;1.30;;;;;;;25.40;35.74;99581.72;4489078;31;34237;-63
2023/07/27 06:18:58;;;;;;;1.98;1.50;;;;;;;25.39;35.82;99579.25;4484131;32;34789;-62
2023/07/27 06:21:26;;;;;;;3.58;1.33;;;;;;;25.42;35.85;99586.97;4498267;31;33689;-62
2023/07/27 06:23:53;;;;;;;3.20;1.30;;;;;;;25.42;35.99;99581.50;4500020;31;34376;-64
2023/07/27 06:26:21;;;;;;;4.18;1.48;;;;;;;25.43;35.85;99575.78;4499815;31;33856;-63
2023/07/27 06:28:49;;;;;;;3.45;1.42;;;;;;;25.44;35.79;99588.34;4499925;31;33552;-63
2023/07/27 06:31:16;;;;;;;3.50;1.37;;;;;;;25.42;35.78;99585.06;4498926;31;33955;-68
2023/07/27 06:33:44;;;;;;;1.90;1.23;;;;;;;25.41;35.73;99579.81;4478357;32;33985;-66
2023/07/27 06:36:14;;;;;;;2.05;1.30;;;;;;;25.42;35.86;99582.31;4483824;32;34001;-64
2023/07/27 06:38:41;;;;;;;1.92;1.30;;;;;;;25.43;35.75;99583.97;4483745;32;34164;-68
2023/07/27 06:41:09;;;;;;;1.87;1.33;;;;;;;25.42;35.67;99587.78;4494369;31;34381;-68
2023/07/27 06:43:37;;;;;;;3.05;1.30;;;;;;;25.40;35.71;99579.00;4499689;31;34655;-67
2023/07/27 06:46:04;;;;;;;2.45;1.15;;;;;;;25.40;35.74;99580.91;4499833;31;34055;-64
2023/07/27 06:48:32;;;;;;;3.58;1.50;;;;;;;25.40;35.82;99592.66;4498636;31;35090;-62
2023/07/27 06:51:00;;;;;;;2.25;1.33;;;;;;;25.42;35.83;99578.75;4492974;31;33822;-63
2023/07/27 06:53:27;;;;;;;2.55;1.25;;;;;;;25.41;35.79;99588.00;4490582;31;33493;-67
2023/07/27 06:55:55;;;;;;;1.67;1.20;;;;;;;25.39;35.82;99588.25;4487582;31;32887;-66
2023/07/27 06:58:23;;;;;;;10.75;1.60;;;;;;;25.41;35.87;99585.28;4494272;31;34137;-67
2023/07/27 07:00:52;;;;;;;5.03;1.50;;;;;;;25.43;35.85;99583.97;4499377;31;33650;-67
2023/07/27 07:03:21;;;;;;;;;;;;;;;25.43;35.90;99588.59;4498348;31;34679;-66
2023/07/27 07:05:48;;;;;;;2.92;1.30;;;;;;;25.54;35.77;99587.72;4499520;31;34255;-67
2023/07/27 07:08:16;;;;;;;3.42;1.60;;;;;;;25.46;35.97;99585.41;4487834;31;35129;-67
2023/07/27 07:10:43;;;;;;;3.17;1.40;;;;;;;25.44;36.00;99580.16;4483398;32;33817;-66
2023/07/27 07:13:11;;;;;;;2.72;1.77;;;;;;;25.44;35.98;99582.06;4483430;32;33638;-65
2023/07/27 07:15:38;;;;;;;2.65;1.48;;;;;;;25.44;35.80;99582.87;4482611;32;34155;-66
2023/07/27 07:18:06;;;;;;;4.53;1.50;;;;;;;25.44;35.89;99591.09;4482238;32;33702;-67
2023/07/27 07:20:34;;;;;;;2.37;1.40;;;;;;;25.45;35.93;99581.81;4486850;31;34224;-65
2023/07/27 07:23:01;;;;;;;4.00;1.52;;;;;;;25.46;35.67;99588.13;4499221;31;33550;-67
2023/07/27 07:25:29;;;;;;;5.65;1.50;;;;;;;25.47;35.75;99587.03;4499091;31;34484;-66
2023/07/27 07:27:56;;;;;;;3.15;1.70;;;;;;;25.47;35.61;99588.94;4499164;31;34044;-64
2023/07/27 07:30:24;;;;;;;2.65;1.35;;;;;;;25.48;35.62;99587.88;4499274;31;33774;-66
2023/07/27 07:32:52;;;;;;;3.87;1.55;;;;;;;25.47;35.65;99588.94;4483166;32;33892;-66
2023/07/27 07:35:20;;;;;;;5.32;1.40;;;;;;;25.47;35.64;99595.25;4466262;32;33803;-63
2023/07/27 07:37:49;;;;;;;3.30;1.40;;;;;;;25.48;35.76;99593.34;4470836;32;33812;-62
2023/07/27 07:40:18;;;;;;;2.22;1.30;;;;;;;25.47;35.77;99592.50;4474150;32;33861;-63
2023/07/27 07:42:46;;;;;;;1.87;1.37;;;;;;;25.48;35.67;99599.63;4456335;32;34888;-64
2023/07/27 07:45:13;;;;;;;3.22;1.35;;;;;;;25.49;35.70;99600.44;4462981;32;34460;-62
2023/07/27 07:47:41;;;;;;;1.87;1.30;;;;;;;25.50;35.75;99599.38;4481747;32;34266;-63
2023/07/27 07:50:10;;;;;;;3.90;1.60;;;;;;;25.50;35.87;99602.09;4467237;32;33665;-67
2023/07/27 07:52:37;;;;;;;2.90;1.58;;;;;;;25.52;35.82;99597.25;4468960;31;33877;-65
2023/07/27 07:55:06;;;;;;;3.72;1.37;;;;;;;25.51;35.85;99595.56;4470034;31;33922;-63
2023/07/27 07:57:34;;;;;;;4.45;1.55;;;;;;;25.53;35.80;99594.25;4469818;31;33807;-65
2023/07/27 08:00:03;;;;;;;3.40;1.80;;;;;;;25.55;35.76;99597.56;4473544;31;34107;-63
2023/07/27 08:02:41;;;;;;;3.90;1.55;;;;;;;25.55;35.70;99586.62;4484181;31;34091;-63
2023/07/27 08:05:09;;;;;;;5.50;1.65;;;;;;;25.57;35.66;99591.88;4477380;31;33982;-62
2023/07/27 08:07:36;;;;;;;3.72;1.33;;;;;;;25.59;35.57;99586.97;4469269;32;34260;-63
2023/07/27 08:10:04;;;;;;;2.78;1.30;;;;;;;25.59;35.38;99585.06;4469111;31;33640;-63
2023/07/27 08:12:33;;;;;;;4.12;1.73;;;;;;;25.59;35.35;99581.50;4472782;31;33855;-61
2023/07/27 08:15:01;;;;;;;3.12;1.55;;;;;;;25.60;35.33;99578.53;4484044;31;33917;-62
2023/07/27 08:17:29;;;;;;;3.08;1.40;;;;;;;25.61;35.35;99577.47;4476433;31;33392;-62
2023/07/27 08:19:57;;;;;;;2.72;1.55;;;;;;;25.62;35.34;99575.56;4498365;31;33970;-62
2023/07/27 08:22:24;;;;;;;1.85;1.37;;;;;;;25.64;35.38;99576.97;4486027;31;34034;-62
2023/07/27 08:24:52;;;;;;;2.75;1.42;;;;;;;25.65;35.41;99575.91;4477855;31;34787;-61
2023/07/27 08:27:36;;;;;;;3.05;1.52;;;;;;;25.68;35.40;99569.94;4479021;31;34083;-62
2023/07/27 08:30:04;;;;;;;2.33;1.50;;;;;;;25.68;35.43;99574.56;4470443;31;33627;-61
2023/07/27 08:32:31;;;;;;;4.75;1.30;;;;;;;25.68;35.42;99572.66;4484348;32;33726;-61
2023/07/27 08:35:00;;;;;;;2.15;1.37;;;;;;;25.70;35.45;99567.78;4484411;32;33676;-62
2023/07/27 08:37:28;;;;;;;4.20;1.80;;;;;;;25.73;35.50;99573.81;4484469;32;33837;-61
2023/07/27 08:39:58;;;;;;;5.78;1.50;;;;;;;25.73;35.50;99577.38;4484489;32;32887;-61
2023/07/27 08:42:28;;;;;;;6.40;2.00;;;;;;;25.76;35.54;99568.72;4484303;32;34130;-63
2023/07/27 08:44:56;;;;;;;2.90;1.52;;;;;;;25.77;35.61;99567.66;4470280;32;35285;-63
2023/07/27 08:47:25;;;;;;;3.58;1.62;;;;;;;25.78;35.67;99566.56;4457157;32;34587;-62
2023/07/27 08:49:53;;;;;;;1.52;1.27;;;;;;;25.80;35.74;99569.06;4470536;32;33603;-62
2023/07/27 08:52:22;;;;;;;3.62;1.70;;;;;;;25.83;35.74;99565.81;4484503;32;33943;-62
2023/07/27 08:54:49;;;;;;;2.77;1.50;;;;;;;25.83;35.76;99566.66;4470097;32;34032;-61
2023/07/27 08:57:17;;;;;;;4.10;1.48;;;;;;;25.86;35.79;99559.87;4484375;32;34304;-61
2023/07/27 08:59:45;;;;;;;5.90;1.50;;;;;;;25.87;35.86;99561.53;4469381;32;34444;-63
2023/07/27 09:02:12;;;;;;;6.05;1.60;;;;;;;25.87;35.76;99554.16;4469806;32;32650;-61
2023/07/27 09:04:40;;;;;;;2.78;1.60;;;;;;;25.88;35.77;99544.91;4484385;32;34746;-61
2023/07/27 09:07:08;;;;;;;2.97;1.65;;;;;;;25.90;35.81;99555.56;4484184;32;33981;-62
2023/07/27 09:09:35;;;;;;;3.72;1.55;;;;;;;25.91;35.86;99546.28;4496443;31;33329;-61
2023/07/27 09:12:05;;;;;;;3.70;1.90;;;;;;;25.93;35.84;99549.63;4500058;31;33426;-62
2023/07/27 09:14:36;;;;;;;2.50;1.48;;;;;;;25.92;35.79;99546.03;4486015;31;34178;-61
2023/07/27 09:17:05;;;;;;;4.15;1.58;;;;;;;25.94;35.60;99551.25;4500279;31;34110;-61
2023/07/27 09:19:35;;;;;;;4.15;1.62;;;;;;;25.94;35.44;99551.25;4500179;31;33674;-63
2023/07/27 09:22:03;;;;;;;3.15;1.50;;;;;;;25.94;35.54;99552.09;4488018;31;34651;-62
2023/07/27 09:24:34;;;;;;;3.60;1.70;;;;;;;25.96;35.51;99551.81;4484259;32;34650;-64
2023/07/27 09:27:02;;;;;;;3.05;1.33;;;;;;;25.96;35.36;99562.75;4484118;32;35080;-62
2023/07/27 09:29:30;;;;;;;3.42;1.37;;;;;;;25.95;35.13;99548.28;4483892;32;34386;-63
2023/07/27 09:31:58;;;;;;;3.65;1.40;;;;;;;25.96;34.93;99549.09;4494034;31;34034;-61
2023/07/27 09:34:30;;;;;;;3.47;1.58;;;;;;;25.96;34.79;99557.28;4500072;31;33765;-64
2023/07/27 09:37:02;;;;;;;3.03;1.80;;;;;;;25.96;34.98;99562.75;4499671;31;34096;-64
2023/07/27 09:39:34;;;;;;;2.65;1.92;;;;;;;25.96;34.80;99551.81;4484744;31;34512;-67
2023/07/27 09:42:03;;;;;;;4.45;1.65;;;;;;;25.97;34.75;99550.75;4485021;31;33978;-64
2023/07/27 09:44:31;;;;;;;2.65;1.67;;;;;;;25.98;34.48;99546.97;4499773;31;34344;-62
2023/07/27 09:46:58;;;;;;;8.27;1.62;;;;;;;25.98;34.55;99552.41;4485478;31;34818;-63
2023/07/27 09:49:28;;;;;;;4.20;1.50;;;;;;;25.99;34.75;99551.34;4499663;31;33577;-63
2023/07/27 09:51:55;;;;;;;3.57;1.93;;;;;;;26.00;34.96;99550.25;4472854;31;33630;-65
2023/07/27 09:54:23;;;;;;;3.33;1.40;;;;;;;26.01;34.93;99554.62;4486008;31;34206;-66
2023/07/27 09:56:50;;;;;;;2.62;1.50;;;;;;;26.02;34.85;99545.38;4479226;31;34588;-63
2023/07/27 09:59:18;;;;;;;3.28;1.65;;;;;;;26.03;34.94;99543.47;4492008;31;33195;-62
2023/07/27 10:01:45;;;;;;;5.57;1.70;;;;;;;26.04;34.91;99545.94;4481139;31;34609;-63
2023/07/27 10:04:13;;;;;;;5.30;1.92;;;;;;;26.04;34.93;99536.91;4499459;31;34689;-63
2023/07/27 10:06:41;;;;;;;4.78;1.90;;;;;;;26.07;35.06;99539.16;4499608;31;33777;-61
2023/07/27 10:09:21;;;;;;;6.95;1.80;;;;;;;26.07;34.69;99529.06;4485871;31;34196;-62
2023/07/27 10:11:56;;;;;;;4.90;1.52;;;;;;;26.07;34.86;99525.50;4499729;31;33584;-62
2023/07/27 10:14:24;;;;;;;3.55;1.70;;;;;;;26.06;34.96;99521.91;4513963;31;33896;-62
2023/07/27 10:17:07;;;;;;;7.43;1.62;;;;;;;26.06;34.98;99524.62;4484428;31;34828;-62
2023/07/27 10:19:40;;;;;;;6.28;1.92;;;;;;;26.09;34.75;99529.63;4469957;32;33655;-62
2023/07/27 10:22:14;;;;;;;8.07;2.72;;;;;;;26.07;34.45;99533.69;4482008;31;34066;-61
2023/07/27 10:25:00;;;;;;;4.62;1.90;;;;;;;26.06;34.50;99529.28;4499617;31;34920;-61
2023/07/27 10:27:28;;;;;;;4.03;2.05;;;;;;;26.09;34.59;99526.06;4499650;31;34304;-63
2023/07/27 10:30:10;;;;;;;3.22;1.92;;;;;;;26.07;34.69;99522.75;4459670;31;34683;-62
2023/07/27 10:32:38;;;;;;;4.53;1.83;;;;;;;26.09;34.69;99520.59;4492337;31;33614;-64
2023/07/27 10:35:09;;;;;;;2.87;1.70;;;;;;;26.07;34.55;99515.38;4483267;32;33515;-61
2023/07/27 10:37:53;;;;;;;2.72;1.70;;;;;;;26.07;34.60;99518.13;4486057;31;34833;-64
2023/07/27 10:40:24;;;;;;;3.00;1.92;;;;;;;26.10;34.64;99514.84;4499854;31;34390;-62
2023/07/27 10:42:55;;;;;;;5.97;1.85;;;;;;;26.08;34.54;99514.28;4500062;31;33902;-63
2023/07/27 10:45:26;;;;;;;6.20;1.73;;;;;;;26.09;34.72;99505.00;4485505;31;34950;-60
2023/07/27 10:47:57;;;;;;;4.20;2.00;;;;;;;26.11;34.67;99500.13;4499795;31;34219;-66
2023/07/27 10:50:25;;;;;;;4.65;1.85;;;;;;;26.10;34.74;99501.19;4491503;31;34398;-60
2023/07/27 10:52:53;;;;;;;4.37;1.85;;;;;;;26.10;34.83;99498.44;4499498;31;33787;-61
2023/07/27 10:55:21;;;;;;;4.05;1.80;;;;;;;26.12;34.95;99493.56;4485647;31;34329;-60
2023/07/27 10:57:49;;;;;;;3.67;1.80;;;;;;;26.14;34.91;99498.78;4499692;31;34096;-61
2023/07/27 11:00:17;;;;;;;2.55;1.55;;;;;;;26.15;34.81;99501.25;4472386;31;33336;-61
2023/07/27 11:02:44;;;;;;;3.70;1.90;;;;;;;26.13;34.75;99492.50;4499410;31;33664;-62
2023/07/27 11:05:12;;;;;;;4.95;1.87;;;;;;;26.15;34.83;99494.97;4472140;31;33318;-61
2023/07/27 11:07:42;;;;;;;2.15;1.40;;;;;;;26.15;34.96;99490.31;4498789;31;34069;-61
2023/07/27 11:10:12;;;;;;;3.08;1.55;;;;;;;26.16;34.95;99493.88;4499755;31;33784;-61
2023/07/27 11:12:49;;;;;;;3.83;1.70;;;;;;;26.17;34.91;99490.09;4469370;32;33784;-61
2023/07/27 11:15:17;;;;;;;3.03;1.70;;;;;;;26.16;34.85;99492.00;4494190;31;34204;-61
2023/07/27 11:17:45;;;;;;;2.62;1.58;;;;;;;26.17;34.87;99487.34;4484944;31;34911;-62
2023/07/27 11:20:13;;;;;;;3.87;1.62;;;;;;;26.18;34.95;99484.34;4484876;31;33477;-63
2023/07/27 11:22:41;;;;;;;3.85;1.50;;;;;;;26.18;34.99;99486.25;4483225;32;34835;-67
2023/07/27 11:25:09;;;;;;;2.67;1.48;;;;;;;26.20;35.13;99486.84;4471241;32;34459;-63
2023/07/27 11:27:39;;;;;;;4.35;1.80;;;;;;;26.20;35.15;99478.62;4470991;32;34100;-63
2023/07/27 11:30:11;;;;;;;2.75;1.65;;;;;;;26.20;35.21;99473.97;4471096;32;33620;-66
2023/07/27 11:32:39;;;;;;;2.87;1.40;;;;;;;26.22;35.13;99478.38;4482742;32;33616;-63
2023/07/27 11:35:07;;;;;;;2.53;1.33;;;;;;;26.23;35.00;99483.59;4485435;32;33860;-65
2023/07/27 11:37:35;;;;;;;3.92;1.60;;;;;;;26.23;34.90;99475.41;4485370;32;34808;-66
2023/07/27 11:40:03;;;;;;;3.58;1.95;;;;;;;26.25;34.88;99464.19;4484248;31;33513;-62
2023/07/27 11:42:37;;;;;;;4.97;1.50;;;;;;;26.25;34.88;99470.47;4485350;32;34359;-63